createdAt,value
2018-02-06T00:01:54.732Z,4.53
2018-02-06T00:05:57.243Z,6.37
2018-02-06T00:10:00.571Z,10.60
2018-02-06T00:14:03.098Z,9.67
2018-02-06T00:18:05.646Z,9.53
2018-02-06T00:22:08.259Z,10.33
2018-02-06T00:26:10.806Z,10.27
2018-02-06T00:30:13.309Z,9.30
2018-02-06T00:34:15.838Z,8.07
2018-02-06T00:38:19.090Z,7.47
2018-02-06T00:42:21.616Z,8.43
2018-02-06T00:46:24.121Z,8.63
2018-02-06T00:50:26.654Z,9.40
2018-02-06T00:54:29.155Z,10.23
2018-02-06T00:58:31.680Z,9.97
2018-02-06T01:02:34.190Z,11.93
2018-02-06T01:06:36.792Z,11.47
2018-02-06T01:10:39.316Z,10.83
2018-02-06T01:14:41.852Z,9.63
2018-02-06T01:18:44.375Z,8.93
2018-02-06T01:22:46.910Z,9.60
2018-02-06T01:26:50.209Z,9.63
2018-02-06T01:30:53.516Z,8.80
2018-02-06T01:34:56.823Z,8.97
2018-02-06T01:39:00.133Z,8.13
2018-02-06T01:43:02.663Z,8.47
2018-02-06T01:47:05.180Z,8.80
2018-02-06T01:51:07.700Z,13.63
2018-02-06T01:55:10.227Z,8.67
2018-02-06T01:59:12.957Z,8.23
2018-02-06T02:03:16.261Z,10.93
2018-02-06T02:07:19.562Z,10.90
2018-02-06T02:11:22.849Z,9.13
2018-02-06T02:15:25.385Z,9.43
2018-02-06T02:19:27.894Z,9.40
2018-02-06T02:23:30.427Z,8.53
2018-02-06T02:27:33.705Z,7.80
2018-02-06T02:31:36.248Z,7.57
2018-02-06T02:35:38.761Z,7.50
2018-02-06T02:39:41.326Z,7.97
2018-02-06T04:41:07.489Z,7.33
2018-02-06T04:45:10.785Z,6.43
2018-02-06T04:49:13.325Z,6.57
2018-02-06T04:53:15.837Z,5.90
2018-02-06T04:57:18.368Z,7.20
2018-02-06T05:01:21.657Z,7.47
2018-02-06T05:05:24.977Z,6.60
2018-02-06T05:09:28.262Z,7.30
2018-02-06T05:13:30.816Z,6.93
2018-02-06T05:17:33.321Z,7.13
2018-02-06T05:21:35.848Z,6.97
2018-02-06T05:25:38.377Z,6.40
2018-02-06T05:29:40.921Z,7.17
2018-02-06T05:33:43.444Z,6.53
2018-02-06T05:37:45.970Z,7.63
2018-02-06T05:41:49.236Z,7.00
2018-02-06T05:45:51.774Z,7.43
2018-02-06T05:49:54.294Z,6.80
2018-02-06T05:53:56.831Z,6.93
2018-02-06T05:58:00.111Z,7.03
2018-02-06T06:02:02.644Z,6.57
2018-02-06T06:06:05.152Z,6.87
2018-02-06T06:14:16.618Z,7.13
2018-02-06T06:18:19.921Z,7.53
2018-02-06T06:22:22.448Z,8.00
2018-02-06T06:26:25.009Z,8.37
2018-02-06T06:30:28.361Z,7.30
2018-02-06T06:34:30.875Z,7.20
2018-02-06T06:38:33.423Z,7.80
2018-02-06T06:42:35.941Z,8.80
2018-02-06T06:46:40.039Z,10.50
2018-02-06T06:50:42.557Z,10.03
2018-02-06T06:54:45.116Z,12.73
2018-02-06T06:58:47.632Z,11.20
2018-02-06T07:02:50.178Z,11.40
2018-02-06T07:06:52.717Z,11.37
2018-02-06T07:10:56.022Z,16.10
2018-02-06T07:14:59.316Z,11.70
2018-02-06T07:19:01.859Z,10.63
2018-02-06T07:23:04.364Z,9.43
2018-02-06T07:27:07.036Z,9.30
2018-02-06T07:31:09.552Z,10.43
2018-02-06T07:35:12.089Z,10.80
2018-02-06T07:39:14.600Z,10.93
2018-02-06T07:43:17.124Z,8.67
2018-02-06T07:47:20.629Z,10.03
2018-02-06T07:51:23.933Z,10.13
2018-02-06T07:55:27.206Z,9.57
2018-02-06T07:59:29.746Z,10.23
2018-02-06T08:03:32.266Z,9.40
2018-02-06T08:07:34.810Z,9.23
2018-02-06T08:11:37.389Z,9.73
2018-02-06T08:15:40.692Z,10.30
2018-02-06T08:19:43.982Z,9.53
2018-02-06T08:23:46.517Z,9.67
2018-02-06T08:27:49.025Z,11.47
2018-02-06T08:31:51.608Z,10.63
2018-02-06T08:35:54.897Z,11.63
2018-02-06T08:39:57.435Z,11.33
2018-02-06T08:44:01.342Z,12.10
2018-02-06T08:48:03.885Z,12.43
2018-02-06T08:52:06.394Z,10.53
2018-02-06T08:56:08.926Z,9.67
2018-02-06T09:00:12.196Z,9.53
2018-02-06T09:04:14.744Z,10.53
2018-02-06T09:08:17.327Z,11.47
2018-02-06T09:12:19.875Z,10.67
2018-02-06T09:16:23.153Z,11.13
2018-02-06T09:20:25.683Z,12.00
2018-02-06T09:24:28.202Z,10.97
2018-02-06T09:28:30.751Z,10.80
2018-02-06T09:32:34.026Z,11.10
2018-02-06T09:36:36.569Z,11.53
2018-02-06T09:40:39.180Z,11.17
2018-02-06T09:44:41.709Z,12.80
2018-02-06T09:48:45.008Z,11.87
2018-02-06T09:52:48.286Z,11.53
2018-02-06T09:56:50.813Z,9.70
2018-02-06T10:00:53.461Z,9.23
2018-02-06T10:04:55.998Z,8.53
2018-02-06T10:08:58.510Z,9.00
2018-02-06T10:13:01.066Z,8.60
2018-02-06T10:17:03.568Z,8.97
2018-02-06T10:21:06.101Z,9.23
2018-02-06T10:25:08.689Z,9.13
2018-02-06T10:29:11.234Z,7.83
2018-02-06T10:33:13.731Z,7.80
2018-02-06T10:37:16.300Z,8.97
2018-02-06T10:41:18.797Z,8.10
2018-02-06T10:45:21.393Z,6.73
2018-02-06T10:49:24.117Z,7.00
2018-02-06T10:53:27.629Z,7.97
2018-02-06T10:57:30.957Z,7.63
2018-02-06T11:01:33.611Z,6.80
2018-02-06T11:05:36.153Z,8.53
2018-02-06T11:09:38.779Z,6.60
2018-02-06T11:13:41.341Z,6.37
2018-02-06T11:17:43.868Z,5.93
2018-02-06T11:21:47.141Z,4.93
2018-02-06T11:25:49.670Z,6.30
2018-02-06T11:29:53.428Z,5.37
2018-02-06T11:33:55.968Z,7.00
2018-02-06T11:37:59.240Z,5.00
2018-02-06T11:42:01.831Z,4.53
2018-02-06T11:46:04.352Z,5.10
2018-02-06T11:50:06.892Z,5.37
2018-02-06T11:54:09.440Z,5.80
2018-02-06T11:58:11.962Z,5.57
2018-02-06T12:02:14.483Z,5.10
2018-02-06T12:06:17.775Z,5.17
2018-02-06T12:10:21.035Z,5.33
2018-02-06T12:14:23.557Z,4.73
2018-02-06T12:18:26.080Z,5.00
2018-02-06T12:22:28.616Z,4.00
2018-02-06T12:26:31.141Z,4.30
2018-02-06T12:30:33.673Z,3.73
2018-02-06T12:34:36.164Z,4.50
2018-02-06T12:38:38.708Z,4.60
2018-02-06T12:42:41.204Z,3.73
2018-02-06T12:46:43.723Z,3.33
2018-02-06T12:50:46.216Z,3.40
2018-02-06T12:54:48.753Z,2.77
2018-02-06T13:03:00.111Z,3.93
2018-02-06T13:07:02.603Z,2.90
2018-02-06T13:11:06.818Z,2.90
2018-02-06T13:15:09.412Z,2.87
2018-02-06T13:19:12.116Z,2.97
2018-02-06T13:23:14.796Z,3.03
2018-02-06T13:27:17.407Z,3.90
2018-02-06T13:31:20.735Z,3.03
2018-02-06T13:35:23.903Z,3.53
2018-02-06T13:39:26.428Z,3.17
2018-02-06T13:43:28.993Z,2.93
2018-02-06T13:47:31.546Z,4.10
2018-02-06T13:51:34.175Z,3.70
2018-02-06T13:55:36.779Z,3.80
2018-02-06T13:59:39.400Z,3.90
2018-02-06T14:03:41.977Z,3.70
2018-02-06T14:07:44.540Z,4.20
2018-02-06T14:11:47.117Z,3.80
2018-02-06T14:15:49.661Z,4.60
2018-02-06T14:19:52.177Z,4.63
2018-02-06T14:23:55.483Z,4.73
2018-02-06T14:27:58.756Z,4.30
2018-02-06T14:32:01.282Z,4.83
2018-02-06T14:36:03.794Z,5.10
2018-02-06T14:40:06.350Z,5.07
2018-02-06T14:44:09.320Z,4.83
2018-02-06T14:48:13.136Z,4.57
2018-02-06T14:52:15.779Z,5.87
2018-02-06T14:56:18.305Z,4.17
2018-02-06T15:00:20.827Z,4.93
2018-02-06T15:04:23.344Z,4.93
2018-02-06T15:08:25.856Z,4.70
2018-02-06T15:12:28.383Z,4.90
2018-02-06T15:16:30.885Z,5.03
2018-02-06T15:20:33.433Z,5.27
2018-02-06T15:24:36.717Z,4.77
2018-02-06T15:28:39.264Z,5.47
2018-02-06T15:32:41.865Z,5.13
2018-02-06T15:36:44.458Z,4.80
2018-02-06T15:40:46.964Z,5.17
2018-02-06T15:44:49.492Z,5.20
2018-02-06T15:48:52.060Z,6.07
2018-02-06T15:52:55.358Z,5.37
2018-02-06T15:56:58.627Z,4.60
2018-02-06T16:01:07.301Z,4.83
2018-02-06T16:05:10.560Z,5.13
2018-02-06T16:09:13.071Z,4.87
2018-02-06T16:13:15.609Z,4.87
2018-02-06T16:17:18.461Z,4.60
2018-02-06T16:21:21.785Z,5.20
2018-02-06T16:25:24.312Z,5.30
2018-02-06T16:29:26.925Z,4.90
2018-02-06T16:33:29.492Z,4.90
2018-02-06T16:37:32.185Z,4.93
2018-02-06T16:41:34.724Z,4.83
2018-02-06T16:45:37.305Z,4.80
2018-02-06T16:49:40.645Z,5.33
2018-02-06T16:53:43.157Z,5.67
2018-02-06T16:57:45.707Z,7.13
2018-02-06T17:01:48.227Z,6.00
2018-02-06T17:05:50.761Z,5.97
2018-02-06T17:09:53.277Z,7.30
2018-02-06T17:13:55.919Z,13.80
2018-02-06T17:17:59.218Z,10.03
2018-02-06T17:22:02.523Z,7.47
2018-02-06T17:26:05.822Z,7.10
2018-02-06T17:30:09.136Z,7.33
2018-02-06T17:34:12.428Z,8.13
2018-02-06T17:38:14.959Z,7.00
2018-02-06T17:42:17.498Z,10.53
2018-02-06T17:46:20.038Z,8.07
2018-02-06T17:50:22.571Z,7.03
2018-02-06T17:54:25.104Z,6.77
2018-02-06T17:58:27.657Z,10.03
2018-02-06T18:02:30.267Z,6.20
2018-02-06T18:06:32.768Z,6.73
2018-02-06T18:19:51.434Z,7.17
2018-02-06T18:23:56.954Z,7.70
2018-02-06T18:28:02.654Z,8.00
2018-02-06T18:32:05.240Z,7.80
2018-02-06T18:36:07.790Z,8.07
2018-02-06T18:40:13.272Z,8.90
2018-02-06T18:44:17.148Z,10.80
2018-02-06T18:48:19.723Z,9.90
2018-02-06T18:52:23.062Z,8.97
2018-02-06T19:09:29.815Z,7.53
2018-02-06T19:13:32.556Z,8.47
2018-02-06T19:17:36.166Z,7.60
2018-02-06T19:21:42.895Z,8.23
2018-02-06T19:30:06.153Z,7.53
2018-02-06T19:34:08.900Z,8.27
2018-02-06T19:38:11.680Z,8.13
2018-02-06T19:42:14.420Z,8.03
2018-02-06T19:46:17.734Z,7.83
2018-02-06T19:50:21.050Z,8.30
2018-02-06T19:54:24.362Z,8.13
2018-02-06T19:58:26.930Z,8.53
2018-02-06T20:02:30.258Z,8.30
2018-02-06T20:06:32.865Z,8.67
2018-02-06T20:10:35.391Z,7.57
2018-02-06T20:14:38.218Z,8.87
2018-02-06T20:18:40.750Z,7.97
2018-02-06T20:22:43.321Z,7.40
2018-02-06T20:26:45.855Z,8.23
2018-02-06T20:30:49.162Z,8.13
2018-02-06T20:34:52.438Z,7.73
2018-02-06T20:38:54.979Z,8.30
2018-02-06T20:42:57.531Z,7.80
2018-02-06T20:47:01.004Z,8.37
2018-02-06T20:51:03.566Z,7.43
2018-02-06T20:55:06.160Z,8.43
2018-02-06T20:59:08.686Z,7.63
2018-02-06T21:03:11.267Z,7.63
2018-02-06T21:07:13.790Z,7.27
2018-02-06T21:11:17.086Z,7.53
2018-02-06T21:15:20.370Z,7.20
2018-02-06T21:19:44.049Z,6.43
2018-02-06T21:24:06.322Z,8.30
2018-02-06T21:28:23.204Z,7.07
2018-02-06T21:32:28.676Z,7.60
2018-02-06T21:36:43.881Z,7.47
2018-02-06T21:40:48.093Z,7.67
2018-02-06T21:44:50.625Z,7.80
2018-02-06T21:49:05.565Z,7.00
2018-02-06T21:53:28.858Z,7.47
2018-02-06T21:57:37.206Z,7.17
2018-02-06T22:01:52.766Z,6.93
2018-02-06T22:06:02.874Z,6.90
2018-02-06T22:10:05.407Z,7.07
2018-02-06T22:14:08.691Z,6.20
2018-02-06T22:18:11.232Z,6.70
2018-02-06T22:22:13.756Z,7.33
2018-02-06T22:26:16.331Z,6.70
2018-02-06T22:45:31.602Z,9.40
2018-02-06T22:49:34.220Z,7.37
2018-02-06T22:53:37.504Z,7.33
2018-02-06T22:57:40.050Z,8.23
2018-02-06T23:01:42.641Z,7.73
2018-02-06T23:05:45.155Z,7.30
2018-02-06T23:09:47.731Z,7.27
2018-02-06T23:13:50.315Z,8.60
2018-02-06T23:17:52.866Z,8.60
2018-02-06T23:21:56.158Z,7.93
2018-02-06T23:26:00.183Z,9.53
2018-02-06T23:30:03.476Z,8.47
2018-02-06T23:34:06.025Z,8.87
2018-02-06T23:38:11.677Z,8.30
2018-02-06T23:42:14.252Z,9.27
2018-02-06T23:46:27.061Z,9.10
2018-02-06T23:56:53.679Z,8.13
